createdAt,value
2023-10-04T00:01:11.713Z,4.82
2023-10-04T00:03:34.740Z,4.82
2023-10-04T00:05:57.595Z,4.82
2023-10-04T00:08:20.341Z,5.45
2023-10-04T00:10:42.973Z,5.07
2023-10-04T00:13:05.606Z,5.25
2023-10-04T00:15:30.575Z,5.05
2023-10-04T00:17:54.406Z,5.30
2023-10-04T00:20:18.261Z,5.32
2023-10-04T00:22:42.146Z,5.30
2023-10-04T00:25:05.337Z,5.10
2023-10-04T00:27:28.090Z,5.53
2023-10-04T00:29:51.167Z,4.97
2023-10-04T00:32:14.576Z,5.20
2023-10-04T00:34:40.725Z,5.38
2023-10-04T00:37:03.385Z,4.90
2023-10-04T00:39:26.406Z,5.35
2023-10-04T00:41:52.102Z,5.07
2023-10-04T00:44:15.481Z,5.40
2023-10-04T00:46:42.349Z,6.05
2023-10-04T00:49:06.306Z,5.80
2023-10-04T00:51:36.717Z,5.78
2023-10-04T00:54:00.540Z,5.50
2023-10-04T00:56:25.817Z,6.07
2023-10-04T00:58:49.279Z,6.18
2023-10-04T01:01:12.151Z,6.50
2023-10-04T01:03:38.562Z,6.47
2023-10-04T01:06:02.875Z,6.50
2023-10-04T01:08:26.976Z,6.35
2023-10-04T01:10:51.032Z,6.07
2023-10-04T01:13:16.495Z,6.18
2023-10-04T01:15:40.858Z,6.22
2023-10-04T01:18:08.566Z,6.03
2023-10-04T01:20:32.124Z,6.25
2023-10-04T01:23:02.314Z,6.75
2023-10-04T01:25:26.123Z,6.28
2023-10-04T01:27:49.153Z,6.32
2023-10-04T01:30:12.756Z,6.35
2023-10-04T01:32:35.506Z,5.97
2023-10-04T01:35:00.576Z,5.50
2023-10-04T01:37:23.244Z,5.55
2023-10-04T01:39:46.213Z,5.20
2023-10-04T01:42:08.990Z,5.40
2023-10-04T01:44:51.941Z,5.82
2023-10-04T01:47:15.237Z,5.85
2023-10-04T01:49:38.547Z,6.18
2023-10-04T01:52:01.263Z,6.50
2023-10-04T01:54:24.273Z,5.75
2023-10-04T01:56:47.037Z,5.60
2023-10-04T01:59:09.696Z,5.47
2023-10-04T02:01:32.769Z,5.53
2023-10-04T02:03:55.463Z,5.60
2023-10-04T02:06:18.870Z,5.85
2023-10-04T02:08:45.223Z,6.15
2023-10-04T02:11:09.897Z,5.55
2023-10-04T02:13:34.056Z,5.97
2023-10-04T02:15:58.542Z,5.65
2023-10-04T02:18:22.709Z,5.40
2023-10-04T02:20:48.662Z,5.55
2023-10-04T02:23:11.633Z,4.80
2023-10-04T02:25:34.784Z,5.38
2023-10-04T02:28:02.318Z,5.18
2023-10-04T02:30:27.960Z,4.70
2023-10-04T02:32:54.439Z,4.95
2023-10-04T02:35:58.614Z,5.13
2023-10-04T02:38:24.430Z,4.80
2023-10-04T02:40:49.875Z,4.28
2023-10-04T02:43:13.056Z,4.25
2023-10-04T02:45:38.317Z,2.95
2023-10-04T02:48:01.182Z,3.10
2023-10-04T02:50:25.823Z,2.70
2023-10-04T02:52:51.617Z,2.53
2023-10-04T02:55:17.155Z,2.47
2023-10-04T02:57:39.957Z,2.53
2023-10-04T03:00:12.777Z,2.00
2023-10-04T03:02:37.449Z,2.25
2023-10-04T03:05:00.723Z,2.10
2023-10-04T03:07:24.084Z,2.03
2023-10-04T03:09:47.222Z,1.85
2023-10-04T03:12:13.958Z,1.77
2023-10-04T03:14:37.390Z,1.45
2023-10-04T03:17:01.905Z,2.00
2023-10-04T03:19:25.315Z,1.27
2023-10-04T03:21:48.547Z,1.40
2023-10-04T03:24:12.294Z,1.23
2023-10-04T03:26:38.320Z,1.50
2023-10-04T03:29:02.550Z,1.52
2023-10-04T03:31:28.435Z,1.10
2023-10-04T03:33:54.730Z,1.23
2023-10-04T03:36:21.307Z,1.30
2023-10-04T03:38:53.789Z,1.27
2023-10-04T03:41:18.145Z,1.45
2023-10-04T03:43:42.255Z,1.02
2023-10-04T03:46:20.509Z,0.90
2023-10-04T03:48:50.335Z,1.20
2023-10-04T03:51:14.056Z,1.00
2023-10-04T03:53:37.671Z,1.40
2023-10-04T03:56:00.433Z,1.10
2023-10-04T03:58:24.508Z,1.20
2023-10-04T04:00:48.701Z,0.80
2023-10-04T04:03:11.868Z,1.30
2023-10-04T04:05:39.951Z,1.20
2023-10-04T04:08:05.058Z,1.15
2023-10-04T04:10:27.658Z,1.13
2023-10-04T04:12:51.620Z,1.10
2023-10-04T04:15:16.311Z,1.35
2023-10-04T04:17:41.101Z,1.15
2023-10-04T04:20:20.646Z,1.30
2023-10-04T04:22:55.393Z,1.10
2023-10-04T04:25:21.027Z,1.17
2023-10-04T04:27:51.538Z,1.13
2023-10-04T04:30:22.747Z,1.17
2023-10-04T04:32:58.044Z,1.25
2023-10-04T04:35:25.702Z,1.20
2023-10-04T04:37:49.601Z,1.10
2023-10-04T04:40:18.494Z,0.90
2023-10-04T04:42:48.612Z,1.25
2023-10-04T04:45:26.893Z,1.17
2023-10-04T04:47:50.533Z,1.10
2023-10-04T04:50:15.313Z,1.50
2023-10-04T04:52:38.067Z,1.48
2023-10-04T04:55:02.352Z,1.15
2023-10-04T04:57:25.064Z,1.20
2023-10-04T04:59:47.785Z,1.40
2023-10-04T05:02:11.023Z,1.33
2023-10-04T05:04:33.923Z,1.83
2023-10-04T05:06:57.618Z,1.48
2023-10-04T05:09:20.430Z,1.55
2023-10-04T05:11:43.093Z,0.90
2023-10-04T05:14:07.879Z,1.60
2023-10-04T05:16:31.631Z,1.10
2023-10-04T05:18:55.553Z,1.15
2023-10-04T05:21:18.531Z,1.35
2023-10-04T05:23:41.736Z,1.30
2023-10-04T05:26:05.448Z,1.08
2023-10-04T05:28:31.431Z,1.48
2023-10-04T05:30:54.228Z,1.30
2023-10-04T05:33:19.684Z,1.27
2023-10-04T05:35:47.131Z,1.40
2023-10-04T05:38:10.034Z,1.70
2023-10-04T05:40:35.231Z,1.27
2023-10-04T05:42:58.336Z,1.42
2023-10-04T05:45:26.428Z,1.52
2023-10-04T05:47:51.459Z,1.30
2023-10-04T05:50:16.219Z,1.10
2023-10-04T05:52:40.649Z,1.00
2023-10-04T05:55:04.628Z,1.23
2023-10-04T05:57:27.807Z,1.30
2023-10-04T05:59:50.893Z,0.90
2023-10-04T06:02:13.702Z,1.20
2023-10-04T06:04:36.516Z,1.08
2023-10-04T06:06:59.211Z,0.90
2023-10-04T06:09:30.005Z,1.00
2023-10-04T06:11:52.919Z,1.30
2023-10-04T06:14:15.628Z,0.82
2023-10-04T06:16:39.244Z,1.13
2023-10-04T06:19:05.567Z,0.82
2023-10-04T06:21:36.052Z,0.90
2023-10-04T06:23:58.705Z,1.13
2023-10-04T06:26:22.058Z,1.00
2023-10-04T06:28:44.792Z,0.90
2023-10-04T06:31:07.649Z,0.85
2023-10-04T06:33:30.794Z,1.30
2023-10-04T06:35:53.508Z,1.00
2023-10-04T06:38:16.320Z,0.77
2023-10-04T06:40:39.770Z,0.90
2023-10-04T06:43:07.671Z,1.00
2023-10-04T06:45:30.491Z,1.30
2023-10-04T06:47:57.970Z,1.20
2023-10-04T06:50:40.936Z,0.90
2023-10-04T06:53:05.996Z,0.90
2023-10-04T06:55:29.146Z,1.25
2023-10-04T06:57:52.586Z,1.00
2023-10-04T07:00:24.221Z,1.00
2023-10-04T07:02:50.646Z,1.13
2023-10-04T07:05:25.225Z,1.17
2023-10-04T07:07:50.384Z,1.15
2023-10-04T07:10:16.977Z,1.00
2023-10-04T07:12:40.312Z,0.90
2023-10-04T07:15:05.372Z,1.17
2023-10-04T07:17:31.201Z,0.70
2023-10-04T07:19:53.871Z,0.88
2023-10-04T07:22:16.693Z,0.98
2023-10-04T07:24:39.485Z,1.10
2023-10-04T07:27:03.434Z,0.73
2023-10-04T07:29:27.931Z,1.10
2023-10-04T07:31:52.349Z,1.05
2023-10-04T07:34:15.035Z,1.00
2023-10-04T07:36:37.822Z,0.93
2023-10-04T07:39:00.527Z,0.93
2023-10-04T07:41:23.273Z,0.90
2023-10-04T07:43:45.940Z,1.02
2023-10-04T07:46:09.768Z,1.20
2023-10-04T07:48:33.024Z,0.90
2023-10-04T07:50:57.190Z,1.23
2023-10-04T07:53:22.577Z,0.95
2023-10-04T07:55:45.333Z,0.90
2023-10-04T07:58:09.996Z,1.35
2023-10-04T08:00:35.305Z,2.13
2023-10-04T08:02:59.037Z,1.15
2023-10-04T08:05:27.364Z,1.45
2023-10-04T08:07:55.456Z,1.15
2023-10-04T08:10:19.101Z,1.10
2023-10-04T08:12:43.554Z,1.10
2023-10-04T08:15:08.747Z,1.20
2023-10-04T08:17:32.717Z,1.10
2023-10-04T08:19:55.794Z,1.00
2023-10-04T08:22:18.674Z,1.20
2023-10-04T08:24:42.162Z,1.08
2023-10-04T08:27:06.422Z,1.10
2023-10-04T08:29:29.191Z,0.80
2023-10-04T08:31:52.209Z,0.90
2023-10-04T08:34:18.017Z,1.10
2023-10-04T08:36:40.843Z,1.00
2023-10-04T08:39:12.194Z,0.93
2023-10-04T08:41:36.296Z,1.20
2023-10-04T08:43:59.039Z,1.30
2023-10-04T08:46:23.033Z,1.00
2023-10-04T08:48:54.871Z,1.17
2023-10-04T08:51:29.888Z,0.98
2023-10-04T08:54:24.189Z,1.20
2023-10-04T08:57:00.079Z,1.15
2023-10-04T08:59:25.476Z,1.23
2023-10-04T09:01:49.283Z,1.50
2023-10-04T09:04:12.793Z,0.90
2023-10-04T09:06:36.190Z,1.52
2023-10-04T09:08:59.041Z,1.00
2023-10-04T09:11:21.806Z,1.08
2023-10-04T09:13:46.000Z,1.20
2023-10-04T09:16:29.765Z,1.35
2023-10-04T09:19:05.046Z,1.00
2023-10-04T09:21:28.659Z,1.20
2023-10-04T09:24:10.049Z,1.17
2023-10-04T09:26:32.951Z,1.05
2023-10-04T09:28:55.670Z,1.15
2023-10-04T09:31:20.467Z,1.20
2023-10-04T09:33:45.625Z,0.95
2023-10-04T09:36:10.985Z,1.20
2023-10-04T09:38:37.190Z,1.63
2023-10-04T09:41:04.106Z,1.20
2023-10-04T09:43:38.466Z,1.55
2023-10-04T09:46:01.928Z,1.50
2023-10-04T09:48:31.675Z,1.30
2023-10-04T09:51:07.275Z,1.48
2023-10-04T09:53:31.033Z,1.48
2023-10-04T09:55:55.699Z,1.30
2023-10-04T09:58:28.633Z,1.15
2023-10-04T10:00:56.936Z,1.10
2023-10-04T10:03:27.642Z,1.20
2023-10-04T10:05:53.601Z,1.35
2023-10-04T10:08:19.470Z,1.70
2023-10-04T10:10:48.611Z,1.33
2023-10-04T10:13:11.682Z,1.25
2023-10-04T10:15:35.453Z,1.52
2023-10-04T10:18:01.044Z,1.58
2023-10-04T10:20:24.092Z,1.50
2023-10-04T10:23:01.696Z,1.20
2023-10-04T10:25:27.024Z,1.50
2023-10-04T10:27:49.900Z,1.38
2023-10-04T10:30:13.984Z,0.90
2023-10-04T10:32:36.940Z,1.38
2023-10-04T10:35:09.967Z,1.00
2023-10-04T10:37:40.070Z,1.05
2023-10-04T10:40:09.530Z,1.10
2023-10-04T10:43:08.913Z,1.10
2023-10-04T10:45:31.922Z,1.00
2023-10-04T10:48:00.339Z,1.00
2023-10-04T10:50:34.461Z,1.25
2023-10-04T10:53:04.726Z,1.20
2023-10-04T10:55:28.898Z,1.30
2023-10-04T10:57:52.117Z,1.02
2023-10-04T11:00:24.077Z,1.30
2023-10-04T11:02:49.875Z,1.20
2023-10-04T11:05:14.202Z,1.20
2023-10-04T11:07:39.140Z,1.10
2023-10-04T11:10:01.827Z,1.10
2023-10-04T11:12:25.166Z,1.20
2023-10-04T11:14:47.986Z,1.10
2023-10-04T11:17:12.163Z,1.90
2023-10-04T11:19:35.650Z,1.20
2023-10-04T11:22:00.577Z,1.00
2023-10-04T11:24:23.432Z,1.10
2023-10-04T11:26:46.418Z,1.30
2023-10-04T11:29:10.383Z,1.55
2023-10-04T11:31:45.169Z,1.05
2023-10-04T11:34:10.268Z,1.15
2023-10-04T11:36:37.111Z,1.20
2023-10-04T11:39:00.512Z,1.20
2023-10-04T11:41:30.136Z,1.70
2023-10-04T11:43:54.977Z,1.23
2023-10-04T11:46:17.731Z,1.10
2023-10-04T11:48:40.797Z,1.13
2023-10-04T11:51:06.209Z,1.40
2023-10-04T11:53:32.000Z,1.20
2023-10-04T11:56:02.150Z,1.33
2023-10-04T11:58:25.087Z,1.20
2023-10-04T12:00:48.014Z,1.17
2023-10-04T12:03:11.408Z,1.15
2023-10-04T12:05:34.609Z,1.15
2023-10-04T12:07:59.760Z,1.27
2023-10-04T12:10:23.301Z,1.10
2023-10-04T12:12:46.041Z,1.27
2023-10-04T12:15:09.455Z,1.77
2023-10-04T12:17:32.281Z,1.20
2023-10-04T12:19:56.614Z,1.40
2023-10-04T12:22:20.514Z,1.67
2023-10-04T12:24:46.448Z,1.23
2023-10-04T12:27:10.107Z,1.50
2023-10-04T12:29:33.564Z,1.45
2023-10-04T12:31:57.285Z,1.23
2023-10-04T12:34:20.189Z,1.15
2023-10-04T12:36:55.162Z,1.10
2023-10-04T12:39:20.506Z,1.33
2023-10-04T12:41:43.297Z,1.48
2023-10-04T12:44:07.190Z,1.13
2023-10-04T12:46:29.962Z,1.20
2023-10-04T12:48:52.694Z,1.10
2023-10-04T12:51:18.099Z,1.25
2023-10-04T12:53:40.942Z,1.50
2023-10-04T12:56:05.179Z,1.00
2023-10-04T12:58:31.660Z,1.20
2023-10-04T13:00:55.144Z,1.05
2023-10-04T13:03:18.758Z,1.35
2023-10-04T13:05:43.513Z,1.08
2023-10-04T13:08:09.500Z,1.30
2023-10-04T13:10:33.971Z,1.30
2023-10-04T13:12:57.988Z,1.08
2023-10-04T13:15:20.860Z,1.00
2023-10-04T13:18:27.182Z,0.90
2023-10-04T13:20:51.693Z,0.95
2023-10-04T13:23:14.366Z,0.98
2023-10-04T13:25:37.603Z,1.08
2023-10-04T13:28:03.289Z,0.95
2023-10-04T13:30:29.156Z,2.03
2023-10-04T13:32:54.064Z,1.23
2023-10-04T13:35:17.742Z,1.20
2023-10-04T13:37:40.888Z,1.10
2023-10-04T13:40:10.283Z,1.20
2023-10-04T13:42:33.045Z,0.90
2023-10-04T13:44:58.490Z,1.15
2023-10-04T13:47:21.400Z,1.00
2023-10-04T13:49:44.204Z,0.90
2023-10-04T13:52:06.887Z,0.73
2023-10-04T13:54:33.113Z,0.68
2023-10-04T13:56:55.741Z,1.00
2023-10-04T13:59:18.444Z,1.00
2023-10-04T14:01:43.426Z,1.10
2023-10-04T14:04:06.412Z,1.50
2023-10-04T14:06:29.146Z,1.00
2023-10-04T14:08:52.830Z,1.10
2023-10-04T14:11:16.526Z,0.90
2023-10-04T14:13:40.013Z,1.02
2023-10-04T14:16:03.764Z,1.15
2023-10-04T14:18:27.168Z,0.90
2023-10-04T14:20:50.062Z,0.60
2023-10-04T14:23:13.508Z,0.88
2023-10-04T14:25:36.170Z,0.88
2023-10-04T14:27:58.933Z,0.88
2023-10-04T14:30:25.102Z,1.10
2023-10-04T14:32:53.080Z,0.98
2023-10-04T14:35:16.327Z,1.00
2023-10-04T14:37:39.329Z,0.80
2023-10-04T14:40:05.028Z,1.00
2023-10-04T14:42:27.707Z,1.05
2023-10-04T14:44:50.659Z,0.95
2023-10-04T14:47:14.334Z,1.10
2023-10-04T14:49:43.760Z,0.82
2023-10-04T14:52:07.499Z,1.30
2023-10-04T14:54:34.825Z,0.98
2023-10-04T14:56:57.920Z,1.15
2023-10-04T14:59:20.539Z,0.80
2023-10-04T15:01:43.310Z,1.10
2023-10-04T15:04:06.529Z,0.90
2023-10-04T15:06:30.888Z,1.02
2023-10-04T15:08:53.972Z,0.90
2023-10-04T15:11:28.237Z,1.00
2023-10-04T15:13:50.870Z,1.10
2023-10-04T15:16:13.574Z,1.20
2023-10-04T15:18:36.366Z,0.90
2023-10-04T15:20:59.109Z,0.80
2023-10-04T15:23:21.847Z,1.00
2023-10-04T15:25:44.515Z,0.93
2023-10-04T15:28:17.841Z,1.00
2023-10-04T15:30:41.340Z,0.90
2023-10-04T15:33:04.543Z,0.95
2023-10-04T15:35:27.657Z,0.90
2023-10-04T15:37:53.259Z,1.08
2023-10-04T15:40:16.229Z,1.42
2023-10-04T15:42:38.824Z,1.00
2023-10-04T15:45:01.651Z,1.08
2023-10-04T15:47:24.447Z,1.15
2023-10-04T15:49:47.171Z,0.98
2023-10-04T15:52:10.122Z,1.13
2023-10-04T15:54:33.850Z,1.17
2023-10-04T15:56:57.140Z,1.20
2023-10-04T15:59:19.839Z,1.35
2023-10-04T16:01:42.498Z,0.90
2023-10-04T16:04:06.013Z,3.28
2023-10-04T16:06:29.019Z,1.40
2023-10-04T16:08:52.198Z,1.10
2023-10-04T16:11:14.875Z,1.15
2023-10-04T16:13:37.763Z,1.00
2023-10-04T16:16:01.516Z,1.20
2023-10-04T16:18:30.255Z,1.20
2023-10-04T16:20:53.211Z,1.10
2023-10-04T16:23:15.945Z,1.30
2023-10-04T16:25:40.893Z,1.40
2023-10-04T16:28:03.864Z,1.20
2023-10-04T16:30:26.767Z,1.52
2023-10-04T16:32:50.333Z,1.40
2023-10-04T16:35:16.719Z,1.35
2023-10-04T16:37:39.458Z,1.20
2023-10-04T16:40:07.479Z,1.40
2023-10-04T16:42:30.417Z,1.30
2023-10-04T16:44:53.225Z,1.52
2023-10-04T16:47:16.038Z,1.30
2023-10-04T16:49:39.351Z,1.40
2023-10-04T16:52:02.183Z,1.30
2023-10-04T16:54:24.852Z,1.42
2023-10-04T16:56:49.454Z,1.30
2023-10-04T16:59:12.178Z,1.42
2023-10-04T17:01:34.945Z,1.30
2023-10-04T17:03:57.767Z,1.17
2023-10-04T17:06:22.762Z,1.17
2023-10-04T17:08:45.748Z,1.10
2023-10-04T17:11:08.439Z,1.33
2023-10-04T17:13:32.095Z,1.50
2023-10-04T17:15:55.055Z,1.58
2023-10-04T17:18:18.612Z,1.60
2023-10-04T17:20:41.868Z,1.58
2023-10-04T17:23:04.718Z,1.27
2023-10-04T17:25:27.466Z,1.00
2023-10-04T17:27:50.204Z,1.52
2023-10-04T17:30:21.618Z,1.40
2023-10-04T17:32:46.677Z,1.50
2023-10-04T17:35:10.034Z,1.52
2023-10-04T17:37:33.130Z,1.40
2023-10-04T17:39:55.754Z,1.90
2023-10-04T17:42:18.856Z,2.13
2023-10-04T17:44:43.259Z,2.20
2023-10-04T17:47:06.678Z,2.33
2023-10-04T17:49:29.565Z,2.47
2023-10-04T17:51:56.734Z,2.63
2023-10-04T17:54:20.406Z,2.67
2023-10-04T17:56:44.365Z,2.58
2023-10-04T17:59:07.834Z,2.38
2023-10-04T18:01:32.077Z,2.42
2023-10-04T18:03:55.105Z,2.78
2023-10-04T18:06:20.060Z,2.60
2023-10-04T18:08:42.835Z,2.10
2023-10-04T18:11:05.777Z,2.30
2023-10-04T18:13:29.734Z,2.00
2023-10-04T18:15:53.723Z,1.77
2023-10-04T18:18:18.818Z,1.73
2023-10-04T18:20:46.055Z,1.70
2023-10-04T18:23:09.456Z,2.00
2023-10-04T18:25:33.251Z,1.88
2023-10-04T18:27:56.308Z,1.80
2023-10-04T18:30:19.483Z,1.90
2023-10-04T18:32:42.574Z,1.65
2023-10-04T18:35:07.366Z,1.92
2023-10-04T18:37:30.569Z,1.70
2023-10-04T18:39:53.577Z,1.73
2023-10-04T18:42:17.530Z,1.77
2023-10-04T18:44:41.858Z,1.75
2023-10-04T18:47:05.632Z,1.70
2023-10-04T18:49:29.821Z,1.75
2023-10-04T18:51:52.856Z,2.00
2023-10-04T18:54:16.991Z,1.80
2023-10-04T18:56:40.504Z,1.80
2023-10-04T18:59:03.587Z,1.90
2023-10-04T19:01:27.045Z,2.05
2023-10-04T19:03:51.319Z,2.05
2023-10-04T19:06:14.413Z,2.22
2023-10-04T19:08:40.380Z,1.83
2023-10-04T19:11:03.347Z,1.90
2023-10-04T19:13:29.727Z,1.90
2023-10-04T19:15:54.950Z,1.83
2023-10-04T19:18:21.449Z,1.60
2023-10-04T19:20:44.753Z,1.80
2023-10-04T19:23:09.696Z,1.90
2023-10-04T19:25:33.011Z,1.60
2023-10-04T19:27:59.592Z,1.85
2023-10-04T19:30:23.239Z,1.90
2023-10-04T19:32:46.993Z,1.65
2023-10-04T19:35:15.178Z,1.73
2023-10-04T19:37:37.897Z,1.75
2023-10-04T19:40:03.083Z,1.70
2023-10-04T19:42:28.086Z,1.98
2023-10-04T19:44:50.898Z,1.67
2023-10-04T19:47:19.260Z,1.75
2023-10-04T19:49:43.361Z,1.80
2023-10-04T19:52:06.403Z,1.75
2023-10-04T19:54:29.167Z,1.73
2023-10-04T19:56:51.939Z,1.67
2023-10-04T19:59:15.103Z,1.70
2023-10-04T20:01:37.905Z,1.80
2023-10-04T20:04:03.828Z,1.65
2023-10-04T20:06:27.082Z,1.90
2023-10-04T20:08:50.199Z,1.70
2023-10-04T20:11:13.111Z,2.00
2023-10-04T20:13:36.798Z,1.60
2023-10-04T20:16:03.112Z,1.70
2023-10-04T20:18:26.831Z,1.50
2023-10-04T20:20:51.365Z,1.80
2023-10-04T20:23:14.421Z,1.58
2023-10-04T20:25:38.429Z,1.80
2023-10-04T20:28:03.306Z,2.03
2023-10-04T20:30:31.188Z,2.00
2023-10-04T20:32:54.368Z,2.30
2023-10-04T20:35:18.417Z,2.03
2023-10-04T20:37:41.842Z,2.30
2023-10-04T20:40:10.674Z,2.15
2023-10-04T20:42:33.668Z,2.25
2023-10-04T20:44:56.421Z,2.08
2023-10-04T20:47:19.186Z,2.08
2023-10-04T20:49:42.413Z,1.70
2023-10-04T20:52:06.009Z,2.10
2023-10-04T20:54:28.781Z,2.05
2023-10-04T20:56:51.672Z,2.20
2023-10-04T20:59:14.851Z,2.00
2023-10-04T21:01:39.874Z,1.85
2023-10-04T21:04:02.809Z,1.75
2023-10-04T21:06:25.661Z,1.92
2023-10-04T21:08:48.322Z,1.77
2023-10-04T21:11:12.617Z,1.80
2023-10-04T21:13:36.629Z,1.80
2023-10-04T21:16:00.016Z,2.00
2023-10-04T21:18:23.939Z,1.80
2023-10-04T21:20:46.994Z,2.00
2023-10-04T21:23:09.721Z,2.03
2023-10-04T21:25:32.503Z,2.10
2023-10-04T21:27:55.708Z,1.80
2023-10-04T21:30:19.396Z,2.05
2023-10-04T21:32:46.117Z,2.00
2023-10-04T21:35:18.750Z,2.00
2023-10-04T21:37:42.739Z,1.85
2023-10-04T21:40:07.996Z,1.90
2023-10-04T21:42:30.642Z,1.88
2023-10-04T21:44:54.563Z,1.70
2023-10-04T21:47:29.449Z,1.95
2023-10-04T21:49:52.990Z,1.60
2023-10-04T21:52:21.239Z,1.73
2023-10-04T21:54:46.932Z,1.63
2023-10-04T21:57:09.665Z,1.60
2023-10-04T21:59:36.447Z,1.80
2023-10-04T22:02:02.511Z,1.85
2023-10-04T22:04:26.926Z,1.83
2023-10-04T22:06:50.666Z,2.10
2023-10-04T22:09:19.505Z,2.00
2023-10-04T22:11:42.077Z,1.65
2023-10-04T22:14:05.165Z,1.95
2023-10-04T22:16:28.255Z,2.50
2023-10-04T22:18:54.247Z,2.13
2023-10-04T22:21:17.260Z,2.35
2023-10-04T22:23:40.027Z,2.35
2023-10-04T22:26:02.684Z,2.15
2023-10-04T22:30:54.642Z,2.10
2023-10-04T22:33:19.679Z,2.20
2023-10-04T22:35:42.352Z,2.42
2023-10-04T22:38:10.571Z,2.17
2023-10-04T22:40:33.350Z,2.15
2023-10-04T22:42:57.964Z,2.30
2023-10-04T22:45:21.313Z,2.20
2023-10-04T22:47:48.214Z,2.70
2023-10-04T22:50:15.833Z,2.22
2023-10-04T22:52:39.556Z,2.10
2023-10-04T22:55:03.367Z,2.10
2023-10-04T22:57:26.433Z,2.10
2023-10-04T22:59:49.475Z,2.42
2023-10-04T23:02:12.318Z,2.17
2023-10-04T23:04:35.299Z,2.13
2023-10-04T23:07:00.792Z,2.20
2023-10-04T23:09:26.125Z,2.88
2023-10-04T23:11:48.820Z,2.40
2023-10-04T23:14:11.338Z,2.50
2023-10-04T23:16:34.213Z,2.55
2023-10-04T23:18:56.878Z,2.60
2023-10-04T23:21:25.604Z,2.80
2023-10-04T23:24:09.641Z,2.63
2023-10-04T23:26:32.409Z,2.25
2023-10-04T23:28:55.197Z,2.28
2023-10-04T23:31:18.692Z,2.40
2023-10-04T23:33:41.521Z,2.33
2023-10-04T23:36:07.933Z,2.53
2023-10-04T23:38:35.076Z,2.45
2023-10-04T23:41:06.760Z,2.47
2023-10-04T23:43:30.665Z,2.37
2023-10-04T23:45:58.468Z,3.22
2023-10-04T23:48:34.231Z,2.65
2023-10-04T23:50:57.175Z,2.83
2023-10-04T23:53:25.237Z,2.58
2023-10-04T23:55:49.815Z,2.40
2023-10-04T23:58:57.473Z,2.78
